TimeCST,TemperatureF,Dew PointF,Humidity,Sea Level PressureIn,VisibilityMPH,Wind Direction,Wind SpeedMPH,Gust SpeedMPH,PrecipitationIn,Events,Conditions,WindDirDegrees,DateUTC
12:58 AM,33.8,10.2,38,30.19,10.0,NE,4.6,-,N/A,,Overcast,50,2014-02-25 06:58:00
1:58 AM,32.7,10.6,40,30.20,10.0,NNE,3.5,-,N/A,,Overcast,30,2014-02-25 07:58:00
2:58 AM,28.8,11.8,49,30.20,10.0,North,1.2,-,N/A,,Clear,350,2014-02-25 08:58:00
3:58 AM,27.5,12.6,54,30.22,10.0,North,6.9,-,N/A,,Clear,360,2014-02-25 09:58:00
4:58 AM,26.2,14.7,62,30.23,10.0,NNE,5.8,-,N/A,,Partly Cloudy,20,2014-02-25 10:58:00
5:58 AM,25.0,15.8,68,30.24,10.0,North,8.1,-,N/A,,Clear,10,2014-02-25 11:58:00
6:58 AM,24.1,16.9,74,30.26,10.0,NNE,4.6,-,N/A,,Clear,20,2014-02-25 12:58:00
7:58 AM,25.9,18.5,74,30.27,10.0,North,9.2,-,N/A,,Clear,10,2014-02-25 13:58:00
8:58 AM,28.4,18.9,67,30.30,10.0,NNE,6.9,-,N/A,,Clear,20,2014-02-25 14:58:00
9:58 AM,30.7,17.8,59,30.28,10.0,NE,6.9,-,N/A,,Clear,40,2014-02-25 15:58:00
10:58 AM,33.1,17.8,53,30.29,10.0,NNE,8.1,-,N/A,,Scattered Clouds,30,2014-02-25 16:58:00
11:58 AM,33.4,16.5,50,30.28,10.0,NNE,6.9,-,N/A,,Overcast,30,2014-02-25 17:58:00
12:58 PM,32.5,16.7,52,30.28,10.0,North,9.2,-,N/A,,Mostly Cloudy,10,2014-02-25 18:58:00
1:58 PM,32.9,16.3,51,30.26,10.0,North,8.1,-,N/A,,Overcast,350,2014-02-25 19:58:00
2:58 PM,32.9,15.4,49,30.26,10.0,NNW,9.2,-,N/A,,Overcast,330,2014-02-25 20:58:00
3:58 PM,31.8,13.8,47,30.25,10.0,North,6.9,-,N/A,,Overcast,10,2014-02-25 21:58:00
4:58 PM,30.0,14.2,52,30.26,10.0,North,10.4,-,N/A,,Overcast,10,2014-02-25 22:58:00
5:58 PM,28.0,13.1,54,30.26,10.0,North,10.4,-,N/A,,Overcast,10,2014-02-25 23:58:00
6:58 PM,26.2,13.1,58,30.27,10.0,North,6.9,-,N/A,,Overcast,360,2014-02-26 00:58:00
7:58 PM,25.9,13.1,58,30.29,10.0,North,10.4,-,N/A,,Overcast,360,2014-02-26 01:58:00
8:58 PM,24.8,15.8,69,30.31,10.0,North,11.5,-,N/A,,Overcast,360,2014-02-26 02:58:00
9:38 PM,24.8,14.0,64,30.28,10.0,NNW,13.8,-,N/A,,Overcast,330,2014-02-26 03:38:00
9:58 PM,23.5,14.2,67,30.34,10.0,NNW,10.4,-,N/A,,Overcast,340,2014-02-26 03:58:00
10:53 PM,21.2,14.0,74,30.29,10.0,North,12.7,21.9,N/A,,Overcast,350,2014-02-26 04:53:00
10:56 PM,21.2,14.0,74,30.30,10.0,North,16.1,21.9,N/A,,Overcast,350,2014-02-26 04:56:00
10:58 PM,21.2,14.0,74,30.35,10.0,North,15.0,21.9,N/A,,Overcast,350,2014-02-26 04:58:00
11:08 PM,21.2,15.8,80,30.30,8.0,NW,13.8,19.6,N/A,Snow,Light Snow,320,2014-02-26 05:08:00
11:23 PM,19.4,17.6,93,30.29,5.0,NNW,15.0,18.4,N/A,Snow,Light Snow,340,2014-02-26 05:23:00
11:58 PM,18.7,16.2,90,30.36,6.0,NNW,17.3,21.9,0.00,Snow,Light Snow,340,2014-02-26 05:58:00